createdAt,value
2022-11-27T00:02:29.956Z,91.29
2022-11-27T00:05:14.540Z,91.31
2022-11-27T00:07:46.722Z,91.94
2022-11-27T00:10:17.443Z,92.43
2022-11-27T00:12:46.322Z,92.75
2022-11-27T00:15:17.354Z,92.22
2022-11-27T00:17:46.372Z,92.65
2022-11-27T00:20:16.759Z,92.32
2022-11-27T00:22:45.641Z,92.91
2022-11-27T00:25:14.467Z,92.27
2022-11-27T00:27:43.686Z,92.78
2022-11-27T00:30:21.690Z,92.38
2022-11-27T00:32:51.193Z,92.92
2022-11-27T00:35:21.660Z,92.93
2022-11-27T00:37:50.715Z,92.94
2022-11-27T00:40:19.504Z,92.48
2022-11-27T00:42:48.499Z,92.36
2022-11-27T00:45:24.968Z,91.81
2022-11-27T00:47:56.613Z,91.58
2022-11-27T00:50:32.181Z,92.05
2022-11-27T00:53:01.269Z,91.95
2022-11-27T00:55:30.271Z,92.07
2022-11-27T00:57:59.111Z,92.27
2022-11-27T01:00:28.047Z,92.25
2022-11-27T01:02:58.936Z,93.14
2022-11-27T01:05:29.522Z,92.61
2022-11-27T01:08:00.969Z,92.96
2022-11-27T01:10:29.918Z,92.87
2022-11-27T01:12:59.165Z,93.55
2022-11-27T01:15:28.259Z,94.25
2022-11-27T01:17:57.539Z,94.27
2022-11-27T01:20:30.854Z,94.04
2022-11-27T01:22:59.741Z,93.53
2022-11-27T01:25:28.796Z,93.51
2022-11-27T01:27:58.454Z,93.38
2022-11-27T01:30:27.866Z,93.63
2022-11-27T01:32:59.819Z,93.34
2022-11-27T01:35:32.925Z,93.51
2022-11-27T01:38:02.944Z,93.46
2022-11-27T01:40:34.717Z,93.30
2022-11-27T01:43:07.984Z,93.31
2022-11-27T01:45:37.144Z,94.12
2022-11-27T01:48:06.279Z,93.93
2022-11-27T01:50:39.062Z,93.72
2022-11-27T01:53:12.036Z,92.62
2022-11-27T01:55:44.217Z,93.09
2022-11-27T01:58:15.465Z,93.09
2022-11-27T02:00:44.458Z,93.13
2022-11-27T02:03:25.806Z,93.87
2022-11-27T02:05:56.603Z,93.09
2022-11-27T02:08:25.676Z,93.61
2022-11-27T02:10:58.560Z,93.44
2022-11-27T02:13:32.522Z,93.57
2022-11-27T02:16:08.712Z,93.51
2022-11-27T02:18:44.316Z,93.73
2022-11-27T02:21:21.719Z,93.66
2022-11-27T02:24:28.854Z,93.12
2022-11-27T02:27:35.642Z,92.48
2022-11-27T02:30:08.942Z,93.34
2022-11-27T02:32:51.171Z,93.92
2022-11-27T02:35:22.696Z,93.48
2022-11-27T02:37:53.228Z,93.36
2022-11-27T02:40:26.315Z,93.36
2022-11-27T02:42:59.303Z,92.72
2022-11-27T02:45:35.981Z,92.64
2022-11-27T02:48:05.995Z,92.50
2022-11-27T02:50:38.937Z,91.89
2022-11-27T02:53:10.418Z,92.16
2022-11-27T02:55:44.141Z,91.97
2022-11-27T02:58:16.718Z,91.46
2022-11-27T03:00:48.322Z,91.70
2022-11-27T03:03:21.564Z,92.68
2022-11-27T03:05:53.597Z,92.61
2022-11-27T03:08:25.701Z,93.17
2022-11-27T03:10:59.814Z,93.20
2022-11-27T03:13:29.730Z,92.85
2022-11-27T03:16:10.760Z,92.68
2022-11-27T03:18:42.940Z,93.30
2022-11-27T03:21:18.115Z,93.02
2022-11-27T03:23:47.112Z,93.11
2022-11-27T03:26:16.411Z,92.66
2022-11-27T03:28:47.759Z,92.37
2022-11-27T03:31:18.507Z,92.69
2022-11-27T03:33:48.103Z,92.32
2022-11-27T03:36:21.963Z,91.83
2022-11-27T03:38:52.220Z,92.06
2022-11-27T03:41:26.435Z,92.10
2022-11-27T03:44:02.052Z,92.41
2022-11-27T03:46:40.293Z,92.05
2022-11-27T03:49:16.066Z,92.14
2022-11-27T03:51:51.101Z,91.61
2022-11-27T03:54:28.493Z,91.73
2022-11-27T03:57:05.265Z,92.33
2022-11-27T03:59:37.951Z,92.28
2022-11-27T04:02:12.634Z,92.45
2022-11-27T04:04:42.013Z,92.59
2022-11-27T04:07:13.550Z,92.89
2022-11-27T04:09:42.406Z,93.30
2022-11-27T04:12:11.627Z,93.67
2022-11-27T04:14:40.699Z,93.49
2022-11-27T04:17:11.970Z,93.05
2022-11-27T04:19:40.947Z,92.92
2022-11-27T04:22:10.275Z,93.35
2022-11-27T04:24:42.200Z,93.40
2022-11-27T04:27:11.531Z,93.17
2022-11-27T04:29:40.626Z,93.39
2022-11-27T04:32:14.335Z,93.92
2022-11-27T04:34:43.846Z,94.08
2022-11-27T04:37:12.710Z,94.38
2022-11-27T04:39:41.775Z,94.46
2022-11-27T04:42:11.434Z,94.32
2022-11-27T04:44:40.600Z,94.52
2022-11-27T04:47:11.983Z,94.27
2022-11-27T04:49:42.306Z,94.55
2022-11-27T04:52:12.170Z,94.63
2022-11-27T04:54:41.350Z,94.79
2022-11-27T04:57:11.851Z,94.95
2022-11-27T04:59:41.048Z,94.84
2022-11-27T05:02:10.046Z,95.00
2022-11-27T05:04:49.284Z,94.97
2022-11-27T05:07:18.497Z,94.90
2022-11-27T05:09:47.778Z,94.96
2022-11-27T05:12:16.842Z,94.85
2022-11-27T05:14:45.512Z,94.73
2022-11-27T05:17:14.309Z,94.84
2022-11-27T05:19:43.755Z,94.14
2022-11-27T05:22:13.974Z,94.87
2022-11-27T05:24:43.161Z,94.74
2022-11-27T05:27:15.177Z,94.49
2022-11-27T05:29:44.030Z,94.08
2022-11-27T05:32:13.279Z,93.90
2022-11-27T05:34:42.358Z,94.13
2022-11-27T05:37:19.114Z,94.26
2022-11-27T05:40:00.502Z,93.89
2022-11-27T05:42:34.090Z,93.96
2022-11-27T05:45:03.288Z,93.68
2022-11-27T05:47:32.179Z,93.88
2022-11-27T05:50:01.096Z,93.63
2022-11-27T05:52:30.987Z,93.70
2022-11-27T05:55:04.180Z,93.22
2022-11-27T05:57:33.071Z,93.73
2022-11-27T06:00:02.168Z,93.58
2022-11-27T06:02:33.921Z,93.13
2022-11-27T06:05:03.031Z,93.78
2022-11-27T06:07:33.266Z,94.14
2022-11-27T06:10:04.079Z,93.74
2022-11-27T06:12:33.685Z,94.00
2022-11-27T06:15:06.988Z,93.92
2022-11-27T06:17:36.390Z,94.05
2022-11-27T06:20:06.723Z,94.17
2022-11-27T06:22:39.300Z,94.43
2022-11-27T06:25:10.441Z,94.08
2022-11-27T06:27:39.332Z,93.83
2022-11-27T06:30:09.665Z,93.78
2022-11-27T06:32:38.632Z,94.21
2022-11-27T06:35:08.566Z,94.02
2022-11-27T06:37:37.513Z,94.30
2022-11-27T06:40:08.500Z,94.08
2022-11-27T06:42:41.077Z,94.10
2022-11-27T06:45:11.374Z,94.03
2022-11-27T06:47:40.398Z,94.13
2022-11-27T06:50:12.565Z,93.74
2022-11-27T06:52:41.766Z,93.78
2022-11-27T06:55:11.374Z,93.77
2022-11-27T06:57:41.701Z,93.96
2022-11-27T07:00:21.665Z,94.00
2022-11-27T07:02:55.459Z,94.73
2022-11-27T07:05:24.914Z,94.75
2022-11-27T07:07:54.097Z,94.73
2022-11-27T07:10:25.970Z,94.89
2022-11-27T07:13:02.815Z,95.59
2022-11-27T07:15:32.271Z,95.00
2022-11-27T07:18:01.709Z,95.00
2022-11-27T07:20:30.928Z,95.01
2022-11-27T07:22:59.595Z,94.74
2022-11-27T07:25:28.473Z,94.90
2022-11-27T07:27:57.896Z,95.50
2022-11-27T07:30:28.932Z,95.86
2022-11-27T07:32:58.134Z,96.04
2022-11-27T07:35:27.126Z,95.80
2022-11-27T07:37:56.225Z,95.59
2022-11-27T07:40:25.304Z,95.60
2022-11-27T07:42:54.212Z,95.29
2022-11-27T07:45:23.574Z,95.20
2022-11-27T07:47:54.253Z,94.73
2022-11-27T07:50:23.384Z,94.33
2022-11-27T07:52:52.515Z,94.41
2022-11-27T07:55:21.539Z,94.35
2022-11-27T07:57:52.682Z,94.20
2022-11-27T08:00:22.807Z,94.25
2022-11-27T08:02:51.902Z,94.04
2022-11-27T08:05:25.910Z,93.86
2022-11-27T08:07:58.556Z,93.73
2022-11-27T08:10:28.406Z,93.49
2022-11-27T08:12:57.399Z,94.18
2022-11-27T08:15:29.669Z,94.23
2022-11-27T08:17:58.254Z,93.86
2022-11-27T08:20:28.637Z,93.89
2022-11-27T08:23:05.253Z,93.95
2022-11-27T08:25:34.864Z,94.21
2022-11-27T08:28:04.345Z,94.10
2022-11-27T08:30:35.355Z,95.02
2022-11-27T08:33:06.505Z,94.93
2022-11-27T08:35:37.084Z,95.84
2022-11-27T08:38:06.489Z,95.01
2022-11-27T08:40:36.507Z,94.74
2022-11-27T08:43:05.409Z,94.67
2022-11-27T08:45:34.522Z,94.20
2022-11-27T08:48:04.005Z,94.15
2022-11-27T08:50:32.898Z,94.52
2022-11-27T08:53:05.269Z,94.69
2022-11-27T08:55:34.161Z,95.31
2022-11-27T08:58:04.278Z,95.09
2022-11-27T09:00:34.003Z,94.88
2022-11-27T09:03:03.496Z,94.51
2022-11-27T09:05:33.415Z,94.56
2022-11-27T09:08:05.786Z,94.71
2022-11-27T09:10:35.803Z,94.42
2022-11-27T09:13:05.003Z,94.41
2022-11-27T09:15:34.052Z,94.75
2022-11-27T09:18:03.195Z,94.52
2022-11-27T09:20:32.191Z,94.56
2022-11-27T09:23:02.641Z,94.56
2022-11-27T09:25:33.045Z,95.05
2022-11-27T09:28:02.961Z,95.54
2022-11-27T09:30:31.961Z,96.09
2022-11-27T09:33:02.318Z,95.85
2022-11-27T09:35:31.548Z,95.43
2022-11-27T09:38:00.832Z,95.38
2022-11-27T09:40:29.887Z,96.22
2022-11-27T09:43:03.414Z,95.13
2022-11-27T09:45:35.979Z,95.21
2022-11-27T09:48:06.930Z,95.41
2022-11-27T09:50:37.528Z,95.38
2022-11-27T09:53:11.964Z,95.02
2022-11-27T09:55:43.301Z,94.96
2022-11-27T09:58:19.767Z,95.56
2022-11-27T10:00:51.685Z,95.33
2022-11-27T10:03:27.346Z,94.57
2022-11-27T10:06:03.135Z,93.97
2022-11-27T10:08:38.965Z,94.84
2022-11-27T10:11:17.610Z,95.06
2022-11-27T10:14:01.250Z,95.74
2022-11-27T10:16:41.418Z,95.42
2022-11-27T10:19:23.125Z,95.20
2022-11-27T10:21:56.091Z,94.81
2022-11-27T10:24:31.623Z,94.67
2022-11-27T10:27:00.933Z,94.73
2022-11-27T10:29:37.608Z,94.79
2022-11-27T10:32:32.855Z,94.18
2022-11-27T10:35:06.398Z,94.17
2022-11-27T10:37:39.593Z,94.71
2022-11-27T10:40:17.002Z,93.33
2022-11-27T10:42:50.811Z,94.09
2022-11-27T10:45:28.566Z,93.62
2022-11-27T10:48:04.070Z,93.83
2022-11-27T10:50:36.718Z,92.32
2022-11-27T10:53:19.553Z,92.68
2022-11-27T10:56:05.136Z,93.49
2022-11-27T10:58:36.178Z,92.98
2022-11-27T11:01:09.539Z,93.29
2022-11-27T11:03:38.726Z,93.18
2022-11-27T11:06:22.948Z,93.21
2022-11-27T11:09:03.073Z,92.86
2022-11-27T11:11:31.952Z,91.88
2022-11-27T11:14:01.272Z,91.79
2022-11-27T11:16:35.373Z,91.05
2022-11-27T11:19:06.372Z,92.53
2022-11-27T11:21:37.042Z,91.61
2022-11-27T11:24:07.777Z,92.64
2022-11-27T11:26:39.846Z,91.81
2022-11-27T11:29:23.881Z,91.75
2022-11-27T11:31:55.407Z,91.20
2022-11-27T11:34:27.200Z,91.30
2022-11-27T11:37:06.253Z,91.55
2022-11-27T11:39:38.113Z,91.14
2022-11-27T11:42:11.977Z,90.68
2022-11-27T11:44:41.600Z,90.95
2022-11-27T11:47:20.105Z,90.02
2022-11-27T11:49:50.970Z,90.58
2022-11-27T11:52:33.370Z,90.62
2022-11-27T11:55:06.451Z,90.34
2022-11-27T11:58:13.325Z,90.82
2022-11-27T12:01:18.955Z,90.84
2022-11-27T12:03:51.248Z,90.71
2022-11-27T12:06:34.420Z,89.91
2022-11-27T12:09:24.693Z,89.18
2022-11-27T12:11:58.472Z,89.55
2022-11-27T12:14:38.638Z,89.81
2022-11-27T12:17:18.723Z,89.53
2022-11-27T12:20:05.544Z,88.69
2022-11-27T12:23:00.457Z,88.89
2022-11-27T12:25:34.339Z,88.42
2022-11-27T12:28:14.718Z,88.76
2022-11-27T12:31:08.123Z,89.20
2022-11-27T12:33:55.476Z,88.30
2022-11-27T12:36:38.017Z,88.28
2022-11-27T12:39:19.402Z,88.03
2022-11-27T12:42:08.982Z,87.50
2022-11-27T12:44:47.591Z,87.86
2022-11-27T12:47:25.909Z,87.05
2022-11-27T12:49:57.513Z,87.55
2022-11-27T12:52:33.426Z,87.57
2022-11-27T12:55:06.512Z,86.90
2022-11-27T12:57:46.328Z,86.78
2022-11-27T13:00:18.313Z,86.87
2022-11-27T13:02:54.856Z,86.34
2022-11-27T13:05:26.478Z,87.67
2022-11-27T13:08:01.451Z,87.19
2022-11-27T13:14:18.688Z,88.49
2022-11-27T13:16:54.142Z,89.04
2022-11-27T13:19:26.044Z,88.94
2022-11-27T13:21:56.320Z,88.77
2022-11-27T13:24:27.408Z,89.15
2022-11-27T13:27:02.239Z,87.45
2022-11-27T13:29:33.538Z,86.89
2022-11-27T13:32:04.008Z,88.02
2022-11-27T13:34:34.240Z,86.92
2022-11-27T13:37:04.292Z,87.04
2022-11-27T13:39:36.012Z,86.92
2022-11-27T13:42:07.369Z,87.24
2022-11-27T13:44:37.609Z,87.21
2022-11-27T13:47:32.904Z,86.28
2022-11-27T13:50:03.841Z,87.39
2022-11-27T13:52:34.168Z,87.08
2022-11-27T13:55:07.871Z,86.70
2022-11-27T13:57:38.501Z,87.60
2022-11-27T14:00:09.341Z,87.10
2022-11-27T14:02:49.173Z,85.97
2022-11-27T14:05:19.675Z,86.66
2022-11-27T14:07:50.996Z,86.69
2022-11-27T14:10:23.599Z,86.50
2022-11-27T14:12:57.866Z,85.93
2022-11-27T14:15:27.884Z,85.59
2022-11-27T14:18:08.634Z,84.95
2022-11-27T14:20:46.866Z,85.93
2022-11-27T14:23:29.039Z,85.96
2022-11-27T14:26:14.660Z,85.73
2022-11-27T14:28:47.321Z,86.33
2022-11-27T14:31:29.376Z,85.71
2022-11-27T14:34:15.270Z,85.61
2022-11-27T14:36:53.114Z,85.90
2022-11-27T14:39:26.728Z,86.23
2022-11-27T14:42:01.411Z,86.16
2022-11-27T14:44:31.217Z,85.68
2022-11-27T14:47:03.103Z,86.01
2022-11-27T14:49:35.403Z,86.40
2022-11-27T14:52:07.268Z,86.69
2022-11-27T14:54:38.771Z,86.30
2022-11-27T14:57:14.468Z,86.68
2022-11-27T14:59:43.604Z,86.68
2022-11-27T15:02:20.600Z,87.07
2022-11-27T15:04:51.794Z,86.59
2022-11-27T15:07:26.238Z,86.84
2022-11-27T15:09:59.503Z,87.32
2022-11-27T15:12:31.468Z,86.46
2022-11-27T15:15:03.426Z,85.91
2022-11-27T15:17:35.181Z,87.45
2022-11-27T15:20:06.928Z,87.39
2022-11-27T15:22:36.982Z,87.00
2022-11-27T15:25:07.605Z,87.23
2022-11-27T15:27:50.266Z,87.56
2022-11-27T15:30:20.369Z,87.13
2022-11-27T15:32:52.929Z,86.95
2022-11-27T15:35:30.008Z,87.42
2022-11-27T15:38:04.507Z,87.21
2022-11-27T15:40:41.369Z,88.46
2022-11-27T15:43:14.545Z,88.71
2022-11-27T15:45:46.299Z,88.70
2022-11-27T15:48:17.405Z,88.99
2022-11-27T15:50:51.462Z,88.42
2022-11-27T15:53:21.326Z,88.91
2022-11-27T15:55:50.629Z,88.82
2022-11-27T15:58:21.260Z,87.72
2022-11-27T16:00:50.510Z,87.83
2022-11-27T16:03:23.957Z,88.38
2022-11-27T16:05:52.785Z,88.15
2022-11-27T16:08:21.744Z,88.21
2022-11-27T16:11:02.095Z,87.38
2022-11-27T16:13:32.643Z,88.80
2022-11-27T16:16:03.824Z,87.43
2022-11-27T16:18:35.920Z,88.05
2022-11-27T16:21:05.709Z,87.28
2022-11-27T16:23:37.820Z,87.04
2022-11-27T16:26:08.356Z,87.81
2022-11-27T16:28:38.961Z,87.68
2022-11-27T16:31:10.470Z,88.07
2022-11-27T16:33:39.602Z,88.79
2022-11-27T16:36:10.398Z,88.31
2022-11-27T16:38:40.085Z,89.12
2022-11-27T16:41:14.096Z,88.06
2022-11-27T16:43:46.880Z,87.92
2022-11-27T16:46:20.764Z,88.61
2022-11-27T16:48:52.732Z,88.62
2022-11-27T16:51:24.307Z,88.79
2022-11-27T16:53:56.169Z,88.97
2022-11-27T16:56:27.212Z,89.19
2022-11-27T16:59:02.701Z,88.77
2022-11-27T17:01:36.198Z,87.96
2022-11-27T17:04:08.902Z,89.11
2022-11-27T17:06:39.558Z,88.13
2022-11-27T17:09:09.591Z,89.02
2022-11-27T17:11:39.814Z,88.77
2022-11-27T17:14:11.251Z,89.31
2022-11-27T17:16:42.769Z,88.16
2022-11-27T17:19:13.963Z,89.42
2022-11-27T17:21:43.673Z,88.32
2022-11-27T17:24:15.562Z,89.14
2022-11-27T17:26:50.453Z,89.29
2022-11-27T17:29:22.281Z,89.96
2022-11-27T17:31:52.269Z,89.23
2022-11-27T17:34:22.163Z,89.18
2022-11-27T17:36:53.873Z,89.45
2022-11-27T17:39:23.123Z,88.40
2022-11-27T17:41:52.528Z,89.08
2022-11-27T17:44:22.851Z,88.64
2022-11-27T17:46:51.843Z,88.84
2022-11-27T17:49:22.217Z,89.10
2022-11-27T17:51:52.903Z,88.88
2022-11-27T17:54:28.386Z,89.55
2022-11-27T17:56:57.140Z,88.65
2022-11-27T17:59:27.875Z,89.22
2022-11-27T18:01:56.828Z,88.89
2022-11-27T18:04:25.967Z,88.83
2022-11-27T18:06:55.049Z,89.80
2022-11-27T18:09:25.870Z,89.58
2022-11-27T18:11:57.283Z,89.76
2022-11-27T18:14:28.391Z,89.81
2022-11-27T18:17:04.245Z,89.52
2022-11-27T18:19:33.654Z,89.83
2022-11-27T18:22:02.544Z,90.20
2022-11-27T18:24:31.485Z,90.05
2022-11-27T18:27:09.202Z,90.05
2022-11-27T18:29:41.359Z,90.54
2022-11-27T18:32:10.954Z,90.85
2022-11-27T18:34:43.079Z,90.41
2022-11-27T18:37:15.452Z,89.78
2022-11-27T18:39:45.572Z,90.51
2022-11-27T18:42:14.650Z,90.28
2022-11-27T18:44:45.913Z,90.10
2022-11-27T18:47:15.977Z,90.28
2022-11-27T18:49:48.513Z,89.83
2022-11-27T18:52:17.604Z,90.69
2022-11-27T18:54:46.792Z,89.70
2022-11-27T18:57:16.520Z,89.52
2022-11-27T18:59:49.133Z,90.52
2022-11-27T19:02:18.341Z,90.09
2022-11-27T19:04:47.269Z,89.92
2022-11-27T19:07:16.687Z,90.48
2022-11-27T19:09:45.692Z,90.26
2022-11-27T19:12:14.665Z,90.45
2022-11-27T19:14:44.465Z,91.54
2022-11-27T19:17:15.130Z,90.32
2022-11-27T19:20:00.281Z,91.00
2022-11-27T19:22:29.400Z,90.10
2022-11-27T19:24:59.224Z,90.23
2022-11-27T19:27:28.598Z,90.39
2022-11-27T19:29:58.122Z,90.10
2022-11-27T19:32:36.517Z,89.21
2022-11-27T19:35:07.422Z,89.94
2022-11-27T19:37:37.473Z,90.37
2022-11-27T19:40:08.639Z,90.00
2022-11-27T19:42:38.660Z,91.11
2022-11-27T19:45:09.900Z,90.22
2022-11-27T19:47:40.913Z,89.87
2022-11-27T19:50:10.455Z,90.24
2022-11-27T19:52:40.273Z,90.40
2022-11-27T19:55:11.106Z,91.30
2022-11-27T19:57:49.831Z,90.19
2022-11-27T20:00:20.152Z,90.30
2022-11-27T20:02:51.220Z,91.36
2022-11-27T20:05:20.683Z,91.16
2022-11-27T20:07:50.685Z,90.99
2022-11-27T20:10:20.431Z,91.38
2022-11-27T20:12:49.825Z,91.04
2022-11-27T20:15:19.956Z,90.97
2022-11-27T20:18:04.615Z,91.06
2022-11-27T20:20:39.607Z,91.38
2022-11-27T20:23:09.363Z,91.72
2022-11-27T20:25:41.021Z,91.70
2022-11-27T20:28:12.043Z,91.60
2022-11-27T20:30:42.982Z,92.25
2022-11-27T20:33:18.959Z,92.60
2022-11-27T20:35:49.591Z,91.52
2022-11-27T20:38:18.610Z,92.82
2022-11-27T20:40:47.630Z,92.17
2022-11-27T20:43:17.088Z,92.09
2022-11-27T20:45:48.828Z,92.10
2022-11-27T20:48:19.479Z,92.61
2022-11-27T20:50:51.368Z,92.13
2022-11-27T20:53:21.048Z,92.00
2022-11-27T20:55:49.821Z,93.02
2022-11-27T20:58:19.138Z,92.51
2022-11-27T21:00:47.970Z,91.75
2022-11-27T21:03:19.175Z,93.10
2022-11-27T21:05:48.365Z,93.03
2022-11-27T21:08:17.559Z,92.56
2022-11-27T21:10:46.409Z,92.87
2022-11-27T21:13:15.288Z,93.18
2022-11-27T21:15:47.015Z,93.08
2022-11-27T21:18:16.287Z,93.34
2022-11-27T21:20:46.717Z,93.41
2022-11-27T21:23:15.636Z,93.63
2022-11-27T21:25:44.755Z,93.45
2022-11-27T21:28:14.954Z,93.37
2022-11-27T21:30:45.143Z,94.10
2022-11-27T21:33:14.073Z,93.78
2022-11-27T21:35:43.064Z,93.89
2022-11-27T21:38:13.800Z,94.43
2022-11-27T21:40:42.971Z,94.00
2022-11-27T21:43:12.562Z,93.57
2022-11-27T21:45:42.022Z,93.78
2022-11-27T21:48:14.320Z,93.64
2022-11-27T21:50:44.001Z,92.37
2022-11-27T21:53:14.831Z,93.23
2022-11-27T21:55:44.848Z,92.65
2022-11-27T21:58:14.150Z,92.46
2022-11-27T22:00:51.172Z,91.93
2022-11-27T22:03:20.328Z,92.04
2022-11-27T22:05:59.157Z,91.90
2022-11-27T22:08:29.575Z,92.26
2022-11-27T22:10:58.793Z,92.26
2022-11-27T22:13:30.129Z,91.56
2022-11-27T22:15:59.126Z,92.19
2022-11-27T22:18:31.398Z,92.43
2022-11-27T22:21:04.339Z,93.16
2022-11-27T22:23:34.889Z,93.12
2022-11-27T22:26:04.419Z,92.71
2022-11-27T22:28:33.334Z,92.88
2022-11-27T22:31:02.403Z,92.57
2022-11-27T22:33:32.584Z,92.01
2022-11-27T22:36:12.174Z,92.55
2022-11-27T22:38:43.308Z,92.06
2022-11-27T22:41:26.211Z,91.61
2022-11-27T22:44:00.492Z,91.51
2022-11-27T22:46:32.830Z,92.01
2022-11-27T22:49:03.474Z,93.07
2022-11-27T22:51:34.021Z,93.19
2022-11-27T22:54:05.238Z,93.15
2022-11-27T22:56:34.656Z,91.86
2022-11-27T22:59:31.763Z,92.50
2022-11-27T23:01:54.866Z,91.60
2022-11-27T23:04:26.286Z,91.95
2022-11-27T23:06:55.502Z,91.91
2022-11-27T23:09:27.162Z,93.11
2022-11-27T23:11:59.429Z,92.62
2022-11-27T23:14:28.730Z,92.57
2022-11-27T23:16:57.704Z,92.22
2022-11-27T23:19:26.737Z,91.47
2022-11-27T23:21:56.225Z,91.19
2022-11-27T23:24:26.652Z,91.22
2022-11-27T23:26:55.922Z,90.79
2022-11-27T23:29:25.358Z,91.57
2022-11-27T23:31:54.610Z,90.76
2022-11-27T23:34:23.752Z,91.62
2022-11-27T23:36:52.854Z,91.01
2022-11-27T23:39:24.202Z,91.20
2022-11-27T23:41:54.509Z,90.68
2022-11-27T23:44:23.551Z,91.26
2022-11-27T23:46:52.620Z,91.23
2022-11-27T23:49:24.559Z,90.95
2022-11-27T23:51:53.557Z,91.62
2022-11-27T23:54:22.549Z,90.69
2022-11-27T23:56:52.725Z,90.99
2022-11-27T23:59:23.374Z,91.13
